CheckWX is a tool to help pilots better visualize weather data.  It is not intended as a substitute for an official pre-flight weather briefing.

19:04:38 UTC

EGPO METAR
Stornoway Airport
Stornoway, United Kingdom
Current

15 mins ago

EGPO 201850Z 13013KT 9999 FEW028 SCT040 09/05 Q1006
Observed
Nov-20 @ 18:50 UTC
Wind
  • 130° at 13 KTS
Visibility
10,000+ meters
Flight Rules
VFR
Cloud Levels
  • Few at 2,800' AGL
  • Scattered at 4,000' AGL
Temperature
C / 48°F
Dewpoint
C / 41°F
Humidity
76%
Altimeter
29.7" Hg
Pressure
1005.92 hPa
Previous

45 mins ago

EGPO 201820Z 13013KT 9999 FEW028 BKN040 09/05 Q1006
Observed
Nov-20 @ 18:20 UTC
Wind
  • 130° at 13 KTS
Visibility
10,000+ meters
Flight Rules
VFR
Cloud Levels
  • Few at 2,800' AGL
  • Broken at 4,000' AGL
Temperature
C / 48°F
Dewpoint
C / 41°F
Humidity
76%
Altimeter
29.7" Hg
Pressure
1005.92 hPa
Previous

1 hour ago

EGPO 201750Z 13014KT 9999 FEW028 SCT048 09/05 Q1006
Observed
Nov-20 @ 17:50 UTC
Wind
  • 130° at 14 KTS
Visibility
10,000+ meters
Flight Rules
VFR
Cloud Levels
  • Few at 2,800' AGL
  • Scattered at 4,800' AGL
Temperature
C / 48°F
Dewpoint
C / 41°F
Humidity
76%
Altimeter
29.7" Hg
Pressure
1005.92 hPa